Union City, NJ

7:20 PM EST en Enero 25, 2015 (GMT -0500)
WCBS TELEVISION | Change Station
CLOSE
Current Station
Estación meteorológica personal
Location: New York, NY
Altura: 13 ft
Estaciones meteorológicas cercanas

Alt 13 ft 40.77 °N, 73.99 °W | Updated 19 seconds ago

Parcialmente nublado
Parcialmente nublado
36.7 ° F
Sensación térmica 37 ° F
N
2.5
Viento Variable Viento desde ONO
Gusts 3.5 mph

Hoy
Alta -- | Baja -- ° F
--% Posibilidad de precipitaciones
Ayer
Alta -- | Baja -- ° F
Precip. -- pul
7:12 AM 5:04 PM
Creciente, 37% visible
Presión 29.91 pul
Visibilidad 10.0 Millas
Nubes Baja 6000 ft
Vientos helados 37 ° F
Punto de rocío 16 ° F
Humedad 43%
Precipitaciones 0.04 pul
Espesor de la nieve No disponible.
UV 0 de una escala de 12
Polen .10 de una escala de 12
Calidad del aire No disponible.
Flu Activity No disponible.
METAR KNYC 252351Z AUTO VRB03KT 10SM FEW060 02/M13 A2993 RMK AO2 SLP128 T00221133 10056 20017 53035

More Conditions Fewer Conditions

Presión 29.91 pul
Visibilidad 10.0 Millas
Nubes Baja 6000 ft
Vientos helados 37 ° F
Punto de rocío 16 ° F
Humedad 43%
Precipitaciones 0.04 pul
Espesor de la nieve No disponible.
UV 0 de una escala de 12
Polen .10 de una escala de 12
Calidad del aire No disponible.
Flu Activity No disponible.
METAR KNYC 252351Z AUTO VRB03KT 10SM FEW060 02/M13 A2993 RMK AO2 SLP128 T00221133 10056 20017 53035

More Conditions Fewer Conditions

10-Day Weather Forecast

Almanac

Astronomía

Jan. 25, 2015 Salida Puesta
Hora real
Crepúsculo civil
Crepúsculo náutico
Crepúsculo astronómico
Luna
Horas de luz
Horas de luz
Tomorrow will be .
, % of the Moon is Illuminated

Extremos de hoy

Máximos del estado Bajos del estado

Community

WunderPhotos

Upload Photos

1,790,013 ¡fotos cargadas!

WunderBlogs® & News

Nearby

Calidad del aire

  Calidad del aire Índice AQ Contaminante
Not available.

Grosos de nieve

Estación Profundido Altura

Actividad de terremotos

Ciudad Distance Mag. Tiempo y dato
Magnitud mínima muestra es 2,5.

Temperaturas de aguas costeras

Lugar Temperatura

Estaciones meteorológicas cercanas